Ladysmith, Wisconsin
Current Conditions -  °F | °C
As of 2:35 AM on Saturday 20 Dec 2014 (Local Time) from KRCX Reporting Station
Overcast Overcast  
Wind Chill: 20°   Ceiling: 1500
Heat Index: 26°   Visibility: 10mi
Dew Point: 23°   Wind: 6mph
Humidity: 89%   Direction: 160°SSE
Pressure: 30.21"   Gusts: NA
Location:  45.46°N, 91.1°W
Report Text: KRCX 200835Z AUTO 16005KT 10SM OVC015 M03/M05 A3021 RMK AO2 T10321048
Loading
Personal Weather Stations






























Interactive Weather Map New forecast layout! Learn more

10-Day Weather Forecast

Advertisements
Track Severe Weather on mobile